^^
Station Historical Data
Daily Summary for October 13, 2018 Units:  English    Metric   Both
Next Day »
Daily Weekly Monthly Yearly Custom
  High: Low: Average:
Temperature: 68.2 °F 61.3 °F 64.8 °F
Dew Point: 64 °F 55.2 °F 60.1 °F
Humidity: 93% 65% 85%
Wind Speed: 6.9mph 0mph 1.2mph
Wind Gust: 6mph - -
Wind- - SSE
Pressure: 29.8 in 29.7 in -
Precipitation: 0.73 in    
Historical Graphs
 
 
Tabular Data for October 13, 2018
Time Temperature Dew Point Pressure Wind Wind Speed Wind Gust Humidity Rainfall Rate (Hourly) solar Conditions
00:05 66.6 °F 55.6 °F 29.7 in Calm   2 mph 68% 0 in 0.00 W/m2 RA
00:09 66.6 °F 55.8 °F 29.7 in East 2.3 mph 0.6 mph 68% 0 in 0.00 W/m2 RA
00:15 66.6 °F 55.8 °F 29.7 in East 1 mph 3 mph 68% 0 in 0.00 W/m2 OVC
00:19 66.7 °F 55.8 °F 29.7 in East 2.3 mph 1.1 mph 68% 0 in 0.00 W/m2 OVC
00:25 66.7 °F 55.9 °F 29.7 in East 1 mph 5 mph 68% 0 in 0.00 W/m2 OVC
00:29 66.9 °F 55.9 °F 29.7 in SE 3 mph 1.7 mph 68% 0 in 0.00 W/m2 OVC
00:35 66.9 °F 55.8 °F 29.7 in East 1 mph 4 mph 67% 0 in 0.00 W/m2 OVC
00:39 67.1 °F 55.8 °F 29.7 in SE 5 mph 1.2 mph 67% 0 in 0.00 W/m2 OVC
00:45 67.3 °F 55.6 °F 29.7 in Calm   5 mph 66% 0 in 0.00 W/m2 OVC
00:49 67.5 °F 55.6 °F 29.7 in SE 1.2 mph 0.3 mph 66% 0 in 0.00 W/m2 OVC
00:55 67.5 °F 55.2 °F 29.7 in Calm   2 mph 65% 0 in 0.00 W/m2 OVC
00:59 67.5 °F 55.2 °F 29.8 in East 1.2 mph   65% 0 in 0.00 W/m2 OVC
01:05 67.6 °F 55.4 °F 29.8 in Calm   1 mph 65% 0 in 0.00 W/m2 OVC
01:09 67.6 °F 55.4 °F 29.8 in Calm     65% 0 in 0.00 W/m2 OVC
01:15 67.6 °F 55.6 °F 29.8 in Calm   1 mph 65% 0 in 0.00 W/m2 OVC
01:19 67.6 °F 55.6 °F 29.8 in East 1.2 mph   65% 0 in 0.00 W/m2 OVC
01:25 67.8 °F 55.6 °F 29.8 in Calm   3 mph 65% 0 in 0.00 W/m2 OVC
01:29 67.8 °F 55.8 °F 29.8 in ESE 2.3 mph 0.4 mph 65% 0 in 0.00 W/m2 OVC
01:35 68 °F 55.8 °F 29.8 in Calm   3 mph 65% 0 in 0.00 W/m2 OVC
01:39 68 °F 55.8 °F 29.7 in ESE 2.3 mph 1.1 mph 65% 0 in 0.00 W/m2 OVC
01:45 68.2 °F 55.9 °F 29.7 in Calm   3 mph 65% 0 in 0.00 W/m2 OVC
01:49 68.2 °F 55.9 °F 29.7 in ESE 1.2 mph 0.2 mph 65% 0 in 0.00 W/m2 OVC
01:55 68.2 °F 55.9 °F 29.8 in Calm   2 mph 65% 0 in 0.00 W/m2 OVC
01:59 68.2 °F 55.9 °F 29.7 in ESE 1.2 mph 0.3 mph 65% 0 in 0.00 W/m2 OVC
02:05 68.2 °F 55.9 °F 29.8 in Calm   3 mph 65% 0 in 0.00 W/m2 OVC
02:09 68.2 °F 56.3 °F 29.8 in ESE 2.3 mph 0.1 mph 66% 0 in 0.00 W/m2 OVC
02:15 68.2 °F 56.3 °F 29.8 in Calm   2 mph 66% 0 in 0.00 W/m2 OVC
02:19 68.2 °F 56.3 °F 29.8 in ESE 1.2 mph 0.2 mph 66% 0 in 0.00 W/m2 OVC
02:25 68.2 °F 56.7 °F 29.7 in Calm   2 mph 67% 0 in 0.00 W/m2 OVC
02:29 68 °F 56.7 °F 29.8 in Calm     67% 0 in 0.00 W/m2 OVC
02:35 68 °F 56.7 °F 29.8 in Calm   2 mph 67% 0 in 0.00 W/m2 OVC
02:39 67.8 °F 56.5 °F 29.7 in Calm     67% 0 in 0.00 W/m2 OVC
02:45 67.8 °F 56.8 °F 29.7 in Calm     68% 0 in 0.00 W/m2 OVC
02:49 67.8 °F 57.4 °F 29.7 in Calm     69% 0 in 0.00 W/m2 OVC
02:55 67.6 °F 57.2 °F 29.7 in Calm     69% 0 in 0.00 W/m2 OVC
02:59 67.6 °F 57 °F 29.7 in Calm     69% 0 in 0.00 W/m2 OVC
03:05 67.6 °F 57 °F 29.7 in Calm     69% 0 in 0.00 W/m2 OVC
03:09 67.5 °F 57.4 °F 29.7 in Calm     70% 0 in 0.00 W/m2 OVC
03:15 67.5 °F 57.4 °F 29.7 in Calm   1 mph 70% 0 in 0.00 W/m2 OVC
03:19 67.5 °F 58.1 °F 29.7 in ESE 1.2 mph   72% 0 in 0.00 W/m2 OVC
03:25 67.3 °F 57.9 °F 29.7 in Calm   3 mph 72% 0 in 0.00 W/m2 OVC
03:29 67.3 °F 57.6 °F 29.7 in ESE 1.2 mph   71% 0 in 0.00 W/m2 OVC
03:35 67.1 °F 57.4 °F 29.7 in Calm   1 mph 71% 0 in 0.00 W/m2 OVC
03:39 66.9 °F 57.4 °F 29.7 in Calm     71% 0 in 0.00 W/m2 OVC
03:45 66.9 °F 56.8 °F 29.7 in ENE 2 mph 4 mph 70% 0 in 0.00 W/m2 OVC
03:49 66.7 °F 56.7 °F 29.7 in East 2.3 mph 0.5 mph 70% 0 in 0.00 W/m2 OVC
03:55 66.9 °F 56.5 °F 29.7 in NE 1 mph 3 mph 69% 0 in 0.00 W/m2 OVC
03:59 66.9 °F 56.8 °F 29.7 in NNE 3.5 mph 2.6 mph 70% 0 in 0.00 W/m2 OVC
04:05 66.9 °F 57.4 °F 29.7 in East 2 mph 5 mph 71% 0 in 0.00 W/m2 OVC
04:09 66.7 °F 57 °F 29.7 in NNE 4.6 mph 1.6 mph 71% 0 in 0.00 W/m2 OVC
04:15 66.6 °F 57.4 °F 29.7 in ESE 1 mph 6 mph 72% 0 in 0.00 W/m2 OVC
04:19 66.4 °F 57 °F 29.7 in East 3.5 mph 1.4 mph 72% 0 in 0.00 W/m2 OVC
04:25 66.4 °F 57.4 °F 29.7 in ENE 1 mph 4 mph 73% 0 in 0.00 W/m2 OVC
04:29 66.2 °F 57.4 °F 29.7 in NE 3.5 mph 0.9 mph 73% 0 in 0.00 W/m2 OVC
04:35 66 °F 57.2 °F 29.7 in Calm   3 mph 73% 0 in 0.00 W/m2 OVC
04:39 66 °F 57 °F 29.7 in NE 2.3 mph 0.2 mph 73% 0 in 0.00 W/m2 OVC
04:45 66 °F 57.6 °F 29.7 in Calm   2 mph 74% 0 in 0.00 W/m2 OVC
04:49 66 °F 57 °F 29.7 in NE 1.2 mph 0.2 mph 73% 0 in 0.00 W/m2 OVC
04:55 66 °F 57 °F 29.7 in Calm   2 mph 73% 0 in 0.00 W/m2 OVC
04:59 66 °F 57 °F 29.7 in NE 1.2 mph   73% 0 in 0.00 W/m2 OVC
05:05 66 °F 57 °F 29.7 in Calm     73% 0 in 0.00 W/m2 OVC
05:09 66 °F 57.6 °F 29.7 in NE 1.2 mph 0.1 mph 74% 0 in 0.00 W/m2 OVC
05:15 66 °F 57.6 °F 29.7 in Calm   1 mph 74% 0 in 0.00 W/m2 OVC
05:19 66 °F 57.7 °F 29.7 in Calm     75% 0 in 0.00 W/m2 OVC
05:25 65.8 °F 57.7 °F 29.7 in Calm     75% 0 in 0.00 W/m2 OVC
05:29 65.8 °F 57.7 °F 29.7 in Calm     75% 0 in 0.00 W/m2 OVC
05:35 65.8 °F 57.9 °F 29.7 in Calm   1 mph 76% 0 in 0.00 W/m2 OVC
05:39 65.7 °F 57.9 °F 29.7 in NE 1.2 mph   76% 0 in 0.00 W/m2 OVC
05:45 65.7 °F 57.7 °F 29.7 in Calm   1 mph 76% 0 in 0.00 W/m2 OVC
05:49 65.5 °F 58.1 °F 29.7 in Calm   0.1 mph 77% 0 in 0.00 W/m2 OVC
05:55 65.5 °F 57.9 °F 29.7 in Calm   1 mph 77% 0 in 0.00 W/m2 OVC
05:59 65.1 °F 58.3 °F 29.7 in NE 1.2 mph   78% 0 in 0.00 W/m2 OVC
06:05 65.1 °F 58.1 °F 29.7 in Calm   1 mph 78% 0 in 0.00 W/m2 SCT
06:09 64.9 °F 57.9 °F 29.7 in NE 1.2 mph 0.1 mph 78% 0 in 0.00 W/m2 SCT
06:15 64.9 °F 57.9 °F 29.7 in ENE 1 mph 3 mph 78% 0 in 0.00 W/m2 SCT
06:19 64.9 °F 58.3 °F 29.7 in East 1.2 mph   79% 0 in 0.00 W/m2 SCT
06:25 64.8 °F 58.1 °F 29.7 in Calm   2 mph 79% 0 in 7.00 W/m2 SCT
06:29 64.8 °F 57.9 °F 29.7 in ESE 2.3 mph 1.1 mph 79% 0 in 14.00 W/m2 SCT
06:35 64.8 °F 57.9 °F 29.7 in Calm   2 mph 79% 0 in 16.00 W/m2 BKN
06:39 64.6 °F 58.3 °F 29.7 in ESE 3.5 mph 0.2 mph 80% 0 in 9.00 W/m2 BKN
06:45 64.6 °F 58.6 °F 29.7 in Calm   3 mph 81% 0 in 11.00 W/m2 BKN
06:49 64.6 °F 58.6 °F 29.8 in ESE 1 mph   81% 0 in 7.00 W/m2 BKN
06:55 64.6 °F 59 °F 29.8 in Calm   1 mph 82% 0 in 0.00 W/m2 BKN
06:59 64.6 °F 58.8 °F 29.8 in ESE 1.2 mph   82% 0 in 0.00 W/m2 BKN
07:05 64.6 °F 59.2 °F 29.8 in Calm   2 mph 83% 0 in 0.00 W/m2 OVC
07:09 64.4 °F 59.2 °F 29.8 in Calm     83% 0.01 in 0.00 W/m2 RA
07:15 64.4 °F 59.5 °F 29.8 in Calm   2 mph 84% 0 in 5.00 W/m2 RA
07:19 64.2 °F 59.4 °F 29.8 in SE 1.2 mph 0.5 mph 84% 0.03 in 7.00 W/m2 RA
07:25 64.2 °F 59.5 °F 29.8 in Calm   1 mph 85% 0.02 in 9.00 W/m2 RA
07:29 64 °F 59.7 °F 29.8 in Calm     86% 0.05 in 11.00 W/m2 RA
07:35 63.9 °F 59.5 °F 29.8 in Calm   2 mph 86% 0 in 14.00 W/m2 RA
07:39 63.7 °F 59.7 °F 29.8 in East 1.2 mph 0.3 mph 87% 0.07 in 18.00 W/m2 RA
07:45 63.3 °F 59.5 °F 29.8 in Calm   1 mph 87% 0 in 23.00 W/m2 RA
07:49 63.3 °F 59.7 °F 29.8 in East 2.3 mph 0.4 mph 88% 0.08 in 23.00 W/m2 RA
07:55 63.1 °F 59.9 °F 29.8 in Calm   2 mph 89% 0 in 33.00 W/m2 RA
07:59 63.1 °F 59.7 °F 29.8 in East 1.2 mph 0.5 mph 89% 0.09 in 39.00 W/m2 RA
08:05 63.1 °F 59.7 °F 29.8 in Calm   1 mph 89% 0 in 33.00 W/m2 RA
08:09 63.1 °F 59.7 °F 29.8 in Calm     89% 0.09 in 40.00 W/m2 RA
08:15 63 °F 60.1 °F 29.8 in East 1 mph 3 mph 90% 0 in 60.00 W/m2 RA
08:19 63.1 °F 60.1 °F 29.8 in ESE 2 mph 0.1 mph 90% 0.08 in 67.00 W/m2 RA
08:25 63.1 °F 60.1 °F 29.8 in Calm   2 mph 90% 0 in 69.00 W/m2 RA
08:29 63.1 °F 60.3 °F 29.8 in Calm     90% 0.07 in 42.00 W/m2 RA
08:35 63.1 °F 60.4 °F 29.8 in Calm     91% 0.01 in 32.00 W/m2 RA
08:39 63.3 °F 60.6 °F 29.8 in Calm     91% 0.06 in 30.00 W/m2 RA
08:45 63.3 °F 60.6 °F 29.8 in Calm     91% 0.01 in 26.00 W/m2 RA
08:49 63.1 °F 60.4 °F 29.8 in Calm     91% 0.06 in 32.00 W/m2 RA
08:55 63.3 °F 60.6 °F 29.8 in Calm   2 mph 91% 0 in 58.00 W/m2 RA
08:59 63.3 °F 60.6 °F 29.8 in ESE 1.2 mph   91% 0.07 in 70.00 W/m2 RA
09:05 63.3 °F 60.6 °F 29.8 in Calm   2 mph 91% 0 in 60.00 W/m2 -RA
09:09 63.3 °F 60.6 °F 29.8 in ESE 1.2 mph 0.2 mph 91% 0.08 in 91.00 W/m2 -RA
09:15 63.3 °F 60.6 °F 29.8 in Calm   2 mph 91% 0 in 149.00 W/m2 -RA
09:19 63.3 °F 61 °F 29.8 in NE 1.2 mph   92% 0.09 in 142.00 W/m2 -RA
09:24 63.5 °F 61.2 °F 29.8 in Calm     92% 0.09 in 116.00 W/m2 -RA
09:29 63.5 °F 61.2 °F 29.8 in NE 2.3 mph 0.5 mph 92% 0.1 in 113.00 W/m2 -RA
09:34 63.5 °F 61.2 °F 29.8 in East 2.3 mph 0.3 mph 92% 0.1 in 127.00 W/m2 -RA
09:39 63.5 °F 61.2 °F 29.8 in East 1.2 mph 0.1 mph 92% 0.1 in 93.00 W/m2 -RA
09:44 63.7 °F 61.2 °F 29.8 in South 1.2 mph 0.7 mph 92% 0.11 in 72.00 W/m2 -RA
09:49 63.7 °F 61.2 °F 29.8 in South 1 mph 0.2 mph 92% 0.12 in 70.00 W/m2 -RA
09:54 63.5 °F 61.2 °F 29.8 in NNE 2.3 mph 0.5 mph 92% 0.14 in 158.00 W/m2 -RA
09:59 63.5 °F 61.2 °F 29.8 in East 2.3 mph 0.1 mph 92% 0.16 in 165.00 W/m2 -RA
10:04 63.5 °F 61.2 °F 29.8 in Calm     92% 0.14 in 97.00 W/m2 RA
10:09 63.7 °F 61.2 °F 29.8 in East 1.2 mph 0.1 mph 92% 0.15 in 97.00 W/m2 RA
10:14 63.5 °F 61.2 °F 29.8 in Calm     92% 0.15 in 114.00 W/m2 RA
10:19 63.5 °F 61.2 °F 29.8 in Calm     92% 0.15 in 111.00 W/m2 RA
10:24 63.7 °F 61.2 °F 29.8 in Calm     92% 0.14 in 93.00 W/m2 RA
10:29 63.7 °F 61.3 °F 29.8 in East 1.2 mph 0.1 mph 92% 0.14 in 88.00 W/m2 RA
10:34 63.9 °F 61.9 °F 29.8 in East 1.2 mph   93% 0.14 in 116.00 W/m2 RA
10:39 64 °F 61.9 °F 29.8 in Calm     93% 0.13 in 151.00 W/m2 OVC
10:44 64.2 °F 62.1 °F 29.8 in Calm     93% 0.12 in 178.00 W/m2 OVC
10:49 64.2 °F 62.2 °F 29.8 in Calm     93% 0.1 in 214.00 W/m2 OVC
10:54 64.4 °F 62.2 °F 29.8 in East 2.3 mph 0.9 mph 93% 0.07 in 264.00 W/m2 RA
10:59 64.4 °F 62.2 °F 29.8 in East 2.3 mph 0.9 mph 93% 0.05 in 306.00 W/m2 RA
11:04 64.6 °F 62.4 °F 29.8 in East 2 mph 0.4 mph 93% 0.05 in 338.00 W/m2 -RA
11:09 64.9 °F 62.8 °F 29.8 in Calm     93% 0.04 in 373.00 W/m2 -RA
11:14 65.1 °F 63 °F 29.8 in NE 2.3 mph 0.1 mph 93% 0.03 in 383.00 W/m2 -RA
11:19 65.3 °F 63.1 °F 29.8 in East 1.2 mph 0.5 mph 93% 0.02 in 357.00 W/m2 -RA
11:24 65.7 °F 63.7 °F 29.8 in East 1.2 mph   93% 0.02 in 214.00 W/m2 -RA
11:29 65.7 °F 63.1 °F 29.8 in East 1.2 mph 0.6 mph 92% 0.01 in 221.00 W/m2 -RA
11:34 65.7 °F 63.7 °F 29.8 in East 1.2 mph 0.3 mph 93% 0.01 in 236.00 W/m2 -RA
11:39 65.7 °F 63.3 °F 29.8 in East 1 mph   92% 0.01 in 225.00 W/m2 OVC
11:44 65.8 °F 63.3 °F 29.8 in East 2.3 mph 0.5 mph 92% 0.02 in 229.00 W/m2 RA
11:49 65.8 °F 63.3 °F 29.7 in East 1.2 mph   92% 0.02 in 232.00 W/m2 RA
11:54 65.8 °F 63.3 °F 29.7 in East 1 mph   92% 0.01 in 624.00 W/m2 OVC
11:59 66 °F 63.7 °F 29.7 in Calm   0.1 mph 92% 0.01 in 413.00 W/m2 OVC
12:04 66.4 °F 63.9 °F 29.7 in East 2.3 mph   92% 0.01 in 246.00 W/m2 -RA
12:09 66.4 °F 63.7 °F 29.7 in East 1.2 mph 0.3 mph 91% 0.01 in 137.00 W/m2 -RA
12:14 66.2 °F 63.5 °F 29.7 in East 1.2 mph 0.2 mph 91% 0.01 in 213.00 W/m2 -RA
12:19 66 °F 63.3 °F 29.7 in East 1.2 mph 0.2 mph 91% 0.01 in 107.00 W/m2 -RA
12:24 66 °F 63.1 °F 29.7 in East 1 mph   90% 0.01 in 149.00 W/m2 -RA
12:29 66.2 °F 63.1 °F 29.7 in East 1.2 mph 0.2 mph 90% 0.01 in 230.00 W/m2 -RA
12:34 66.4 °F 63.3 °F 29.7 in NE 1.2 mph 0.1 mph 90% 0.01 in 137.00 W/m2 -RA
12:39 66.6 °F 63.5 °F 29.7 in NE 1 mph   90% 0.01 in 90.00 W/m2 -RA
12:44 66.7 °F 63.7 °F 29.7 in NE 1.2 mph   90% 0 in 104.00 W/m2 -RA
12:49 66.7 °F 63.7 °F 29.7 in NE 1.2 mph 1 mph 90% 0 in 155.00 W/m2 -RA
12:54 66.6 °F 63.3 °F 29.7 in NE 1.2 mph 0.2 mph 89% 0.01 in 109.00 W/m2 -RA
12:59 66.4 °F 63.1 °F 29.7 in SW 4.6 mph 2.2 mph 89% 0.01 in 105.00 W/m2 -RA
13:04 66.4 °F 63 °F 29.7 in SSW 4 mph 1.1 mph 89% 0.04 in 148.00 W/m2 RA
13:09 66 °F 62.8 °F 29.7 in WSW 3.5 mph 1.2 mph 89% 0.06 in 102.00 W/m2 RA
13:14 66 °F 63 °F 29.7 in SW 4 mph 1.5 mph 90% 0.07 in 63.00 W/m2 RA
13:19 65.8 °F 62.8 °F 29.7 in WSW 3.5 mph 1.9 mph 90% 0.08 in 88.00 W/m2 RA
13:24 65.7 °F 62.6 °F 29.7 in SSW 3.5 mph 0.4 mph 90% 0.08 in 98.00 W/m2 RA
13:29 65.5 °F 62.4 °F 29.7 in SW 4 mph 2.5 mph 90% 0.08 in 95.00 W/m2 RA
13:34 65.3 °F 62.6 °F 29.7 in WNW 5.8 mph 1.5 mph 91% 0.09 in 153.00 W/m2 RA
13:39 65.1 °F 62.4 °F 29.7 in SSW 4.6 mph 1.9 mph 91% 0.09 in 104.00 W/m2 RA
13:44 65.1 °F 62.4 °F 29.7 in West 2.3 mph 0.7 mph 91% 0.1 in 83.00 W/m2 -RA
13:49 65.1 °F 62.4 °F 29.7 in WSW 1.2 mph   91% 0.1 in 116.00 W/m2 -RA
13:54 65.3 °F 62.6 °F 29.7 in WSW 1.2 mph   91% 0.09 in 144.00 W/m2 -RA
13:59 65.5 °F 62.8 °F 29.7 in WNW 2.3 mph 0.8 mph 91% 0.09 in 174.00 W/m2 -RA
14:04 65.5 °F 62.8 °F 29.7 in WNW 1.2 mph 0.5 mph 91% 0.06 in 148.00 W/m2 -RA
14:09 65.5 °F 63.1 °F 29.7 in WNW 1.2 mph 0.2 mph 92% 0.04 in 214.00 W/m2 -RA
14:14 65.7 °F 63.1 °F 29.7 in SW 2.3 mph 0.6 mph 92% 0.03 in 144.00 W/m2 -RA
14:19 65.8 °F 63.3 °F 29.7 in SW 1.2 mph 0.3 mph 92% 0.02 in 237.00 W/m2 -RA
14:24 66 °F 63.7 °F 29.7 in WSW 2 mph 1 mph 92% 0.02 in 360.00 W/m2 -RA
14:29 66.4 °F 63.9 °F 29.7 in Calm     92% 0.02 in 223.00 W/m2 -RA
14:34 66.6 °F 64 °F 29.7 in WSW 2.3 mph 0.2 mph 92% 0.01 in 229.00 W/m2 -RA
14:39 66 °F 63.3 °F 29.7 in NNW 1.2 mph   91% 0.01 in 116.00 W/m2 -RA
14:44 66.4 °F 63.7 °F 29.7 in Calm     91% 0 in 100.00 W/m2 -RA
14:49 66.4 °F 63.7 °F 29.7 in NNW 1.2 mph 0.1 mph 91% 0 in 135.00 W/m2 -RA
14:54 66.6 °F 63.9 °F 29.7 in NNW 1.2 mph   91% 0 in 81.00 W/m2 -RA
14:59 66.6 °F 63.9 °F 29.7 in NNW 1.2 mph   91% 0 in 39.00 W/m2 -RA
15:04 66.7 °F 64 °F 29.7 in Calm     91% 0 in 23.00 W/m2 -RA
15:09 66.7 °F 63.7 °F 29.7 in Calm     90% 0 in 35.00 W/m2 -RA
15:14 66.7 °F 64 °F 29.7 in West 1.2 mph 0.6 mph 91% 0 in 109.00 W/m2 -RA
15:19 66.9 °F 63.9 °F 29.7 in WSW 2 mph 1.2 mph 90% 0 in 74.00 W/m2 -RA
15:24 66.9 °F 63.9 °F 29.7 in WSW 1.2 mph 0.9 mph 90% 0 in 44.00 W/m2 -RA
15:29 66.7 °F 63.9 °F 29.7 in SW 6.9 mph 1.4 mph 90% 0 in 65.00 W/m2 -RA
15:34 66.7 °F 63.7 °F 29.7 in SW 5.8 mph 2.1 mph 90% 0 in 69.00 W/m2 -RA
15:39 66.4 °F 63.1 °F 29.7 in SW 3.5 mph 1.8 mph 89% 0 in 93.00 W/m2 RA
15:44 66.4 °F 63.1 °F 29.7 in SW 3.5 mph 1.9 mph 89% 0 in 109.00 W/m2 RA
15:49 66.4 °F 63.1 °F 29.7 in SSW 4.6 mph 1.9 mph 89% 0 in 95.00 W/m2 OVC
15:54 66.4 °F 63 °F 29.7 in West 3 mph 1.5 mph 89% 0 in 69.00 W/m2 OVC
15:59 66 °F 62.4 °F 29.7 in SW 3.5 mph 1 mph 88% 0 in 46.00 W/m2 OVC
16:04 66 °F 62.2 °F 29.7 in SSW 4.6 mph 2.1 mph 88% 0 in 40.00 W/m2 -RA
16:09 65.8 °F 62.2 °F 29.7 in SW 4.6 mph 1.5 mph 88% 0 in 70.00 W/m2 -RA
16:14 65.8 °F 62.1 °F 29.7 in SW 4 mph 2.1 mph 88% 0.02 in 62.00 W/m2 -RA
16:19 65.7 °F 61.9 °F 29.8 in SW 3.5 mph 1.5 mph 88% 0.03 in 44.00 W/m2 -RA
16:24 65.5 °F 62.1 °F 29.8 in SSW 3.5 mph 1.4 mph 89% 0.03 in 56.00 W/m2 -RA
16:29 65.3 °F 62.1 °F 29.8 in WSW 3.5 mph 1.3 mph 89% 0.05 in 60.00 W/m2 -RA
16:34 65.1 °F 61.9 °F 29.8 in SW 5 mph 1.5 mph 89% 0.05 in 44.00 W/m2 -RA
16:39 64.9 °F 61.5 °F 29.8 in SW 3.5 mph 1.2 mph 89% 0.06 in 32.00 W/m2 -RA
16:44 64.8 °F 61.3 °F 29.8 in SW 3.5 mph 1.2 mph 89% 0.06 in 35.00 W/m2 RA
16:49 64.8 °F 61.7 °F 29.8 in WNW 2.3 mph 0.8 mph 90% 0.08 in 58.00 W/m2 RA
16:54 64.8 °F 61.9 °F 29.7 in WNW 1.2 mph   90% 0.1 in 74.00 W/m2 RA
16:59 64.8 °F 61.9 °F 29.8 in Calm     90% 0.1 in 60.00 W/m2 RA
17:04 64.8 °F 61.9 °F 29.8 in WNW 1.2 mph   90% 0.1 in 30.00 W/m2 BKN
17:09 64.8 °F 61.9 °F 29.8 in WNW 1.2 mph   90% 0.1 in 53.00 W/m2 BKN
17:14 64.8 °F 61.9 °F 29.8 in Calm     90% 0.08 in 37.00 W/m2 BKN
17:19 64.8 °F 61.7 °F 29.8 in WNW 2.3 mph 0.4 mph 90% 0.07 in 26.00 W/m2 BKN
17:24 64.8 °F 61.7 °F 29.8 in WNW 2 mph 0.3 mph 90% 0.07 in 16.00 W/m2 BKN
17:29 64.6 °F 61.5 °F 29.8 in WNW 1.2 mph 0.8 mph 90% 0.05 in 11.00 W/m2 BKN
17:34 64.6 °F 61.5 °F 29.8 in WNW 1.2 mph 1.2 mph 90% 0.05 in 7.00 W/m2 BKN
17:39 64.2 °F 61.2 °F 29.8 in Calm     90% 0.04 in 5.00 W/m2 BKN
17:44 63.9 °F 60.6 °F 29.8 in North 2.3 mph 0.2 mph 89% 0.04 in 0.00 W/m2 BKN
17:49 63.7 °F 60.3 °F 29.8 in North 1.2 mph 0.1 mph 89% 0.02 in 0.00 W/m2 BKN
17:54 63.5 °F 60.4 °F 29.8 in North 3.5 mph 0.9 mph 90% 0 in 0.00 W/m2 BKN
17:59 63.3 °F 60.4 °F 29.8 in North 2.3 mph 0.2 mph 90% 0 in 0.00 W/m2 BKN
18:04 63.3 °F 60.4 °F 29.8 in Calm     90% 0 in 0.00 W/m2 CLR
18:09 63.3 °F 60.4 °F 29.8 in Calm     90% 0 in 0.00 W/m2 CLR
18:14 63.3 °F 60.3 °F 29.8 in North 2.3 mph 1.2 mph 90% 0 in 0.00 W/m2 CLR
18:19 63.3 °F 60.3 °F 29.8 in North 3 mph 1.8 mph 90% 0 in 0.00 W/m2 CLR
18:24 63.3 °F 60.3 °F 29.8 in North 1.2 mph 0.3 mph 90% 0 in 0.00 W/m2 CLR
18:29 63.3 °F 60.3 °F 29.8 in North 1.2 mph 0.5 mph 90% 0 in 0.00 W/m2 CLR
18:34 63.1 °F 60.4 °F 29.8 in North 1.2 mph 0.3 mph 91% 0 in 0.00 W/m2 BKN
18:39 63.3 °F 60.6 °F 29.8 in Calm     91% 0 in 0.00 W/m2 BKN
18:44 63.1 °F 60.4 °F 29.8 in North 1.2 mph   91% 0 in 0.00 W/m2 SCT
18:49 63.1 °F 60.4 °F 29.8 in Calm     91% 0 in 0.00 W/m2 SCT
18:54 63.1 °F 60.4 °F 29.8 in Calm     91% 0 in 0.00 W/m2 SCT
18:59 63.1 °F 60.4 °F 29.8 in Calm     91% 0 in 0.00 W/m2 SCT
19:04 63.1 °F 60.4 °F 29.8 in Calm     91% 0.01 in 0.00 W/m2 RA
19:09 63 °F 60.3 °F 29.8 in Calm     91% 0.01 in 0.00 W/m2 RA
19:14 63 °F 60.3 °F 29.8 in Calm     91% 0.01 in 0.00 W/m2 BKN
19:19 63 °F 60.3 °F 29.8 in Calm     91% 0.01 in 0.00 W/m2 BKN
19:25 63 °F 60.3 °F 29.8 in Calm     91% 0 in 0.00 W/m2 OVC
19:29 63 °F 60.3 °F 29.8 in WNW 2 mph 0.9 mph 91% 0.01 in 0.00 W/m2 OVC
19:34 63 °F 60.6 °F 29.8 in West 2.3 mph 0.8 mph 92% 0.01 in 0.00 W/m2 OVC
19:39 63 °F 60.6 °F 29.8 in WNW 1.2 mph 0.6 mph 92% 0.01 in 0.00 W/m2 OVC
19:44 63 °F 60.4 °F 29.8 in NW 1.2 mph 0.4 mph 92% 0.01 in 0.00 W/m2 OVC
19:49 62.8 °F 60.4 °F 29.8 in NNW 1.2 mph 0.1 mph 92% 0.01 in 0.00 W/m2 OVC
19:54 62.8 °F 60.3 °F 29.8 in WNW 1.2 mph 0.8 mph 92% 0.01 in 0.00 W/m2 OVC
19:59 62.6 °F 60.3 °F 29.8 in NNE 1.2 mph 0.4 mph 92% 0.01 in 0.00 W/m2 OVC
20:05 62.4 °F 60.1 °F 29.8 in NNE 1 mph 5 mph 92% 0 in 0.00 W/m2 OVC
20:09 62.2 °F 59.5 °F 29.8 in North 2.3 mph 1 mph 91% 0 in 0.00 W/m2 OVC
20:14 62.1 °F 59.7 °F 29.8 in Calm     92% 0 in 0.00 W/m2 OVC
20:19 62.1 °F 59.5 °F 29.8 in Calm     92% 0 in 0.00 W/m2 OVC
20:24 61.9 °F 59.5 °F 29.8 in Calm     92% 0 in 0.00 W/m2 BKN
20:29 61.9 °F 59.5 °F 29.8 in North 1.2 mph 0.2 mph 92% 0 in 0.00 W/m2 BKN
20:34 61.9 °F 59.5 °F 29.8 in North 2.3 mph   92% 0 in 0.00 W/m2 BKN
20:39 61.9 °F 59.5 °F 29.8 in Calm     92% 0 in 0.00 W/m2 BKN
20:44 61.9 °F 59.5 °F 29.8 in Calm     92% 0 in 0.00 W/m2 BKN
20:49 61.9 °F 59.5 °F 29.8 in Calm     92% 0 in 0.00 W/m2 BKN
20:54 61.9 °F 59.5 °F 29.8 in NNW 2 mph 0.7 mph 92% 0 in 0.00 W/m2 BKN
20:59 61.9 °F 59.5 °F 29.8 in Calm   0.1 mph 92% 0 in 0.00 W/m2 BKN
21:04 61.9 °F 59.5 °F 29.8 in North 2 mph 0.2 mph 92% 0 in 0.00 W/m2 OVC
21:09 61.9 °F 59.5 °F 29.8 in Calm     92% 0 in 0.00 W/m2 OVC
21:14 61.9 °F 59.5 °F 29.8 in North 1.2 mph   92% 0 in 0.00 W/m2 OVC
21:19 61.9 °F 59.5 °F 29.8 in Calm     92% 0 in 0.00 W/m2 OVC
21:24 61.9 °F 59.5 °F 29.8 in Calm     92% 0 in 0.00 W/m2 OVC
21:29 62.1 °F 59.5 °F 29.8 in Calm     92% 0 in 0.00 W/m2 OVC
21:35 62.1 °F 59.5 °F 29.8 in Calm     92% 0 in 0.00 W/m2 OVC
21:39 62.1 °F 59.7 °F 29.8 in Calm     92% 0 in 0.00 W/m2 OVC
21:44 62.2 °F 59.7 °F 29.8 in Calm     92% 0 in 0.00 W/m2 -RA
21:49 62.2 °F 59.9 °F 29.8 in Calm     92% 0 in 0.00 W/m2 -RA
21:55 62.2 °F 59.9 °F 29.8 in Calm     92% 0 in 0.00 W/m2 -RA
21:59 62.4 °F 60.1 °F 29.8 in Calm     92% 0 in 0.00 W/m2 -RA
22:04 62.2 °F 59.9 °F 29.8 in Calm     92% 0 in 0.00 W/m2 OVC
22:09 62.4 °F 60.1 °F 29.8 in Calm     92% 0 in 0.00 W/m2 OVC
22:15 62.4 °F 60.3 °F 29.8 in Calm     93% 0 in 0.00 W/m2 OVC
22:19 62.4 °F 60.3 °F 29.8 in Calm     93% 0 in 0.00 W/m2 -RA
22:24 62.4 °F 60.4 °F 29.8 in NW 2 mph 0.4 mph 93% 0.01 in 0.00 W/m2 -RA
22:29 62.4 °F 60.4 °F 29.8 in SW 2.3 mph   93% 0.02 in 0.00 W/m2 -RA
22:35 62.6 °F 60.4 °F 29.8 in Calm   2 mph 93% 0 in 0.00 W/m2 -RA
22:39 62.4 °F 60.4 °F 29.8 in SW 1.2 mph   93% 0.05 in 0.00 W/m2 -RA
22:45 62.4 °F 60.4 °F 29.8 in Calm   1 mph 93% 0.01 in 0.00 W/m2 -RA
22:49 62.4 °F 60.3 °F 29.8 in SW 1.2 mph 0.1 mph 93% 0.08 in 0.00 W/m2 -RA
22:54 62.2 °F 59.7 °F 29.8 in SW 2.3 mph 0.6 mph 92% 0.09 in 0.00 W/m2 -RA
22:59 62.1 °F 59.5 °F 29.8 in SW 1.2 mph 0.1 mph 92% 0.1 in 0.00 W/m2 -RA
23:05 61.9 °F 59.7 °F 29.8 in Calm   2 mph 93% 0 in 0.00 W/m2 RA
23:09 61.7 °F 59.7 °F 29.8 in South 2.3 mph 0.3 mph 93% 0.12 in 0.00 W/m2 RA
23:15 61.5 °F 59.5 °F 29.8 in Calm   2 mph 93% 0 in 0.00 W/m2 RA
23:19 61.5 °F 59.5 °F 29.8 in SSE 1.2 mph 0.1 mph 93% 0.13 in 0.00 W/m2 RA
23:24 61.5 °F 59.5 °F 29.8 in Calm     93% 0.12 in 0.00 W/m2 OVC
23:29 61.5 °F 59.5 °F 29.8 in SSE 2.3 mph   93% 0.12 in 0.00 W/m2 RA
23:35 61.5 °F 59.5 °F 29.8 in Calm   1 mph 93% 0 in 0.00 W/m2 RA
23:39 61.5 °F 59.5 °F 29.8 in Calm     93% 0.09 in 0.00 W/m2 OVC
23:45 61.5 °F 59.5 °F 29.8 in Calm   2 mph 93% 0 in 0.00 W/m2 OVC
23:49 61.3 °F 59.4 °F 29.8 in Calm     93% 0.06 in 0.00 W/m2 OVC
23:55 61.3 °F 59.4 °F 29.8 in Calm   1 mph 93% 0 in 0.00 W/m2 OVC
23:59 61.3 °F 59.4 °F 29.8 in Calm     93% 0.04 in 0.00 W/m2 OVC
Countryside Manor, Tucson, AZ, USA